sensor_id;sensor_type;location;lat;lon;timestamp;P1;durP1;ratioP1;P2;durP2;ratioP2
64075;SDS011;50327;51.328;12.324;2023-10-09T00:00:33;9.43;;;3.47;;
64075;SDS011;50327;51.328;12.324;2023-10-09T00:03:04;8.32;;;3.50;;
64075;SDS011;50327;51.328;12.324;2023-10-09T00:05:31;8.88;;;3.22;;
64075;SDS011;50327;51.328;12.324;2023-10-09T00:08:14;10.52;;;3.67;;
64075;SDS011;50327;51.328;12.324;2023-10-09T00:10:56;9.05;;;3.05;;
64075;SDS011;50327;51.328;12.324;2023-10-09T00:13:22;9.27;;;3.03;;
64075;SDS011;50327;51.328;12.324;2023-10-09T00:15:58;7.93;;;3.35;;
64075;SDS011;50327;51.328;12.324;2023-10-09T00:18:33;12.38;;;3.38;;
64075;SDS011;50327;51.328;12.324;2023-10-09T00:20:59;8.43;;;3.05;;
64075;SDS011;50327;51.328;12.324;2023-10-09T00:23:40;7.30;;;2.92;;
64075;SDS011;50327;51.328;12.324;2023-10-09T00:26:06;6.15;;;3.00;;
64075;SDS011;50327;51.328;12.324;2023-10-09T00:28:36;9.70;;;3.03;;
64075;SDS011;50327;51.328;12.324;2023-10-09T00:31:03;7.88;;;2.78;;
64075;SDS011;50327;51.328;12.324;2023-10-09T00:33:31;9.15;;;3.28;;
64075;SDS011;50327;51.328;12.324;2023-10-09T00:36:00;16.00;;;2.97;;
64075;SDS011;50327;51.328;12.324;2023-10-09T00:38:31;9.35;;;3.15;;
64075;SDS011;50327;51.328;12.324;2023-10-09T00:40:59;9.10;;;2.77;;
64075;SDS011;50327;51.328;12.324;2023-10-09T00:43:48;6.47;;;2.85;;
64075;SDS011;50327;51.328;12.324;2023-10-09T00:46:15;9.27;;;3.28;;
64075;SDS011;50327;51.328;12.324;2023-10-09T00:48:47;9.23;;;3.22;;
64075;SDS011;50327;51.328;12.324;2023-10-09T00:51:13;6.47;;;2.80;;
64075;SDS011;50327;51.328;12.324;2023-10-09T00:53:48;8.45;;;3.13;;
64075;SDS011;50327;51.328;12.324;2023-10-09T00:56:16;8.55;;;3.50;;
64075;SDS011;50327;51.328;12.324;2023-10-09T00:58:51;8.52;;;3.00;;
64075;SDS011;50327;51.328;12.324;2023-10-09T01:01:24;8.95;;;3.55;;
64075;SDS011;50327;51.328;12.324;2023-10-09T01:03:53;10.18;;;3.53;;
64075;SDS011;50327;51.328;12.324;2023-10-09T01:06:18;8.13;;;3.13;;
64075;SDS011;50327;51.328;12.324;2023-10-09T01:08:46;10.20;;;3.63;;
64075;SDS011;50327;51.328;12.324;2023-10-09T01:11:27;8.52;;;3.50;;
64075;SDS011;50327;51.328;12.324;2023-10-09T01:13:55;5.57;;;2.70;;
64075;SDS011;50327;51.328;12.324;2023-10-09T01:16:36;9.38;;;3.72;;
64075;SDS011;50327;51.328;12.324;2023-10-09T01:19:02;6.00;;;3.08;;
64075;SDS011;50327;51.328;12.324;2023-10-09T01:21:37;9.48;;;3.85;;
64075;SDS011;50327;51.328;12.324;2023-10-09T01:24:04;8.15;;;3.35;;
64075;SDS011;50327;51.328;12.324;2023-10-09T01:26:37;8.32;;;3.13;;
64075;SDS011;50327;51.328;12.324;2023-10-09T01:29:10;9.10;;;3.90;;
64075;SDS011;50327;51.328;12.324;2023-10-09T01:31:39;11.10;;;3.60;;
64075;SDS011;50327;51.328;12.324;2023-10-09T01:34:09;6.90;;;3.55;;
64075;SDS011;50327;51.328;12.324;2023-10-09T01:36:38;9.23;;;3.40;;
64075;SDS011;50327;51.328;12.324;2023-10-09T01:39:04;8.00;;;3.40;;
64075;SDS011;50327;51.328;12.324;2023-10-09T01:41:50;8.13;;;3.38;;
64075;SDS011;50327;51.328;12.324;2023-10-09T01:44:22;7.95;;;3.58;;
64075;SDS011;50327;51.328;12.324;2023-10-09T01:46:47;8.30;;;3.38;;
64075;SDS011;50327;51.328;12.324;2023-10-09T01:49:13;6.50;;;3.40;;
64075;SDS011;50327;51.328;12.324;2023-10-09T01:51:47;12.88;;;3.75;;
64075;SDS011;50327;51.328;12.324;2023-10-09T01:54:14;9.07;;;3.30;;
64075;SDS011;50327;51.328;12.324;2023-10-09T01:56:58;8.73;;;3.25;;
64075;SDS011;50327;51.328;12.324;2023-10-09T01:59:25;6.57;;;3.40;;
64075;SDS011;50327;51.328;12.324;2023-10-09T02:01:50;10.05;;;3.50;;
64075;SDS011;50327;51.328;12.324;2023-10-09T02:04:19;7.75;;;3.53;;
64075;SDS011;50327;51.328;12.324;2023-10-09T02:06:45;8.25;;;3.42;;
64075;SDS011;50327;51.328;12.324;2023-10-09T02:09:11;6.53;;;3.40;;
64075;SDS011;50327;51.328;12.324;2023-10-09T02:11:45;12.02;;;3.55;;
64075;SDS011;50327;51.328;12.324;2023-10-09T02:14:10;7.75;;;3.20;;
64075;SDS011;50327;51.328;12.324;2023-10-09T02:16:45;8.65;;;3.30;;
64075;SDS011;50327;51.328;12.324;2023-10-09T02:19:27;6.68;;;3.45;;
64075;SDS011;50327;51.328;12.324;2023-10-09T02:21:58;7.75;;;3.40;;
64075;SDS011;50327;51.328;12.324;2023-10-09T02:24:25;14.18;;;4.25;;
64075;SDS011;50327;51.328;12.324;2023-10-09T02:27:14;7.65;;;4.18;;
64075;SDS011;50327;51.328;12.324;2023-10-09T02:29:47;6.75;;;3.33;;
64075;SDS011;50327;51.328;12.324;2023-10-09T02:32:13;9.50;;;3.63;;
64075;SDS011;50327;51.328;12.324;2023-10-09T02:34:39;7.97;;;3.30;;
64075;SDS011;50327;51.328;12.324;2023-10-09T02:37:05;16.23;;;3.63;;
64075;SDS011;50327;51.328;12.324;2023-10-09T02:39:38;13.32;;;3.95;;
64075;SDS011;50327;51.328;12.324;2023-10-09T02:42:12;7.32;;;3.60;;
64075;SDS011;50327;51.328;12.324;2023-10-09T02:44:37;7.75;;;3.50;;
64075;SDS011;50327;51.328;12.324;2023-10-09T02:47:11;7.10;;;3.35;;
64075;SDS011;50327;51.328;12.324;2023-10-09T02:49:43;7.88;;;3.28;;
64075;SDS011;50327;51.328;12.324;2023-10-09T02:52:08;9.57;;;3.38;;
64075;SDS011;50327;51.328;12.324;2023-10-09T02:54:35;8.43;;;3.38;;
64075;SDS011;50327;51.328;12.324;2023-10-09T02:57:01;8.18;;;3.20;;
64075;SDS011;50327;51.328;12.324;2023-10-09T02:59:35;5.55;;;2.90;;
64075;SDS011;50327;51.328;12.324;2023-10-09T03:02:03;8.07;;;3.58;;
64075;SDS011;50327;51.328;12.324;2023-10-09T03:04:29;8.10;;;3.50;;
64075;SDS011;50327;51.328;12.324;2023-10-09T03:06:57;8.57;;;3.40;;
64075;SDS011;50327;51.328;12.324;2023-10-09T03:09:23;9.65;;;3.00;;
64075;SDS011;50327;51.328;12.324;2023-10-09T03:11:52;6.95;;;3.53;;
64075;SDS011;50327;51.328;12.324;2023-10-09T03:14:19;10.52;;;3.60;;
64075;SDS011;50327;51.328;12.324;2023-10-09T03:16:45;6.47;;;3.17;;
64075;SDS011;50327;51.328;12.324;2023-10-09T03:19:13;10.52;;;3.38;;
64075;SDS011;50327;51.328;12.324;2023-10-09T03:21:38;8.77;;;3.58;;
64075;SDS011;50327;51.328;12.324;2023-10-09T03:24:03;7.53;;;4.18;;
64075;SDS011;50327;51.328;12.324;2023-10-09T03:26:31;8.15;;;3.92;;
64075;SDS011;50327;51.328;12.324;2023-10-09T03:28:56;7.72;;;3.45;;
64075;SDS011;50327;51.328;12.324;2023-10-09T03:31:23;8.32;;;3.30;;
64075;SDS011;50327;51.328;12.324;2023-10-09T03:33:48;9.25;;;3.20;;
64075;SDS011;50327;51.328;12.324;2023-10-09T03:36:13;12.05;;;3.67;;
64075;SDS011;50327;51.328;12.324;2023-10-09T03:38:41;13.95;;;3.28;;
64075;SDS011;50327;51.328;12.324;2023-10-09T03:41:07;7.38;;;3.70;;
64075;SDS011;50327;51.328;12.324;2023-10-09T03:43:37;8.10;;;3.45;;
64075;SDS011;50327;51.328;12.324;2023-10-09T03:46:04;7.13;;;3.33;;
64075;SDS011;50327;51.328;12.324;2023-10-09T03:48:30;8.27;;;3.90;;
64075;SDS011;50327;51.328;12.324;2023-10-09T03:51:01;7.13;;;3.40;;
64075;SDS011;50327;51.328;12.324;2023-10-09T03:53:46;11.15;;;3.63;;
64075;SDS011;50327;51.328;12.324;2023-10-09T03:56:12;10.68;;;3.47;;
64075;SDS011;50327;51.328;12.324;2023-10-09T03:58:38;7.57;;;3.88;;
64075;SDS011;50327;51.328;12.324;2023-10-09T04:01:08;8.98;;;3.97;;
64075;SDS011;50327;51.328;12.324;2023-10-09T04:03:36;8.30;;;3.55;;
64075;SDS011;50327;51.328;12.324;2023-10-09T04:06:03;8.35;;;3.72;;
64075;SDS011;50327;51.328;12.324;2023-10-09T04:08:29;8.27;;;3.97;;
64075;SDS011;50327;51.328;12.324;2023-10-09T04:10:55;9.68;;;3.88;;
64075;SDS011;50327;51.328;12.324;2023-10-09T04:13:26;9.82;;;3.72;;
64075;SDS011;50327;51.328;12.324;2023-10-09T04:15:58;11.07;;;3.25;;
64075;SDS011;50327;51.328;12.324;2023-10-09T04:18:24;15.75;;;4.03;;
64075;SDS011;50327;51.328;12.324;2023-10-09T04:20:57;7.47;;;3.72;;
64075;SDS011;50327;51.328;12.324;2023-10-09T04:23:43;7.43;;;4.13;;
64075;SDS011;50327;51.328;12.324;2023-10-09T04:26:35;11.43;;;3.72;;
64075;SDS011;50327;51.328;12.324;2023-10-09T04:29:02;10.60;;;4.45;;
64075;SDS011;50327;51.328;12.324;2023-10-09T04:31:27;10.73;;;4.10;;
64075;SDS011;50327;51.328;12.324;2023-10-09T04:33:57;11.43;;;4.53;;
64075;SDS011;50327;51.328;12.324;2023-10-09T04:36:41;8.30;;;4.50;;
64075;SDS011;50327;51.328;12.324;2023-10-09T04:39:14;8.07;;;4.63;;
64075;SDS011;50327;51.328;12.324;2023-10-09T04:42:01;13.07;;;4.75;;
64075;SDS011;50327;51.328;12.324;2023-10-09T04:44:45;16.65;;;4.90;;
64075;SDS011;50327;51.328;12.324;2023-10-09T04:47:29;10.68;;;4.60;;
64075;SDS011;50327;51.328;12.324;2023-10-09T04:52:33;12.45;;;4.82;;
64075;SDS011;50327;51.328;12.324;2023-10-09T04:54:58;8.88;;;4.43;;
64075;SDS011;50327;51.328;12.324;2023-10-09T04:57:39;9.30;;;4.88;;
64075;SDS011;50327;51.328;12.324;2023-10-09T05:00:11;8.88;;;4.55;;
64075;SDS011;50327;51.328;12.324;2023-10-09T05:02:51;10.02;;;5.15;;
64075;SDS011;50327;51.328;12.324;2023-10-09T05:05:21;8.43;;;4.18;;
64075;SDS011;50327;51.328;12.324;2023-10-09T05:08:04;10.15;;;4.18;;
64075;SDS011;50327;51.328;12.324;2023-10-09T05:10:47;12.27;;;5.00;;
64075;SDS011;50327;51.328;12.324;2023-10-09T05:16:07;11.10;;;5.40;;
64075;SDS011;50327;51.328;12.324;2023-10-09T05:18:45;9.18;;;4.85;;
64075;SDS011;50327;51.328;12.324;2023-10-09T05:21:21;10.50;;;5.05;;
64075;SDS011;50327;51.328;12.324;2023-10-09T05:23:56;15.23;;;5.95;;
64075;SDS011;50327;51.328;12.324;2023-10-09T05:29:13;13.23;;;6.13;;
64075;SDS011;50327;51.328;12.324;2023-10-09T05:31:45;10.55;;;5.03;;
64075;SDS011;50327;51.328;12.324;2023-10-09T05:34:22;17.30;;;5.40;;
64075;SDS011;50327;51.328;12.324;2023-10-09T05:36:48;16.27;;;5.43;;
64075;SDS011;50327;51.328;12.324;2023-10-09T05:39:14;11.82;;;4.57;;
64075;SDS011;50327;51.328;12.324;2023-10-09T05:41:46;12.35;;;5.15;;
64075;SDS011;50327;51.328;12.324;2023-10-09T05:44:24;9.05;;;4.90;;
64075;SDS011;50327;51.328;12.324;2023-10-09T05:47:08;12.10;;;4.75;;
64075;SDS011;50327;51.328;12.324;2023-10-09T05:49:52;8.35;;;5.03;;
64075;SDS011;50327;51.328;12.324;2023-10-09T05:52:41;12.15;;;4.90;;
64075;SDS011;50327;51.328;12.324;2023-10-09T05:55:06;14.18;;;5.93;;
64075;SDS011;50327;51.328;12.324;2023-10-09T05:57:50;14.82;;;5.20;;
64075;SDS011;50327;51.328;12.324;2023-10-09T06:00:33;16.75;;;5.18;;
64075;SDS011;50327;51.328;12.324;2023-10-09T06:03:17;14.25;;;5.13;;
64075;SDS011;50327;51.328;12.324;2023-10-09T06:05:46;12.85;;;5.22;;
64075;SDS011;50327;51.328;12.324;2023-10-09T06:08:24;11.93;;;5.63;;
64075;SDS011;50327;51.328;12.324;2023-10-09T06:11:12;12.38;;;5.07;;
64075;SDS011;50327;51.328;12.324;2023-10-09T06:14:10;8.60;;;4.43;;
64075;SDS011;50327;51.328;12.324;2023-10-09T06:16:39;16.33;;;6.23;;
64075;SDS011;50327;51.328;12.324;2023-10-09T06:19:10;19.63;;;5.45;;
64075;SDS011;50327;51.328;12.324;2023-10-09T06:21:45;12.95;;;5.78;;
64075;SDS011;50327;51.328;12.324;2023-10-09T06:24:29;17.02;;;5.30;;
64075;SDS011;50327;51.328;12.324;2023-10-09T06:27:07;15.15;;;6.05;;
64075;SDS011;50327;51.328;12.324;2023-10-09T06:29:32;14.02;;;5.50;;
64075;SDS011;50327;51.328;12.324;2023-10-09T06:32:03;11.95;;;5.57;;
64075;SDS011;50327;51.328;12.324;2023-10-09T06:34:44;19.08;;;6.00;;
64075;SDS011;50327;51.328;12.324;2023-10-09T06:37:11;15.25;;;5.88;;
64075;SDS011;50327;51.328;12.324;2023-10-09T06:39:59;15.73;;;6.13;;
64075;SDS011;50327;51.328;12.324;2023-10-09T06:42:25;15.00;;;6.00;;
64075;SDS011;50327;51.328;12.324;2023-10-09T06:45:03;15.15;;;5.88;;
64075;SDS011;50327;51.328;12.324;2023-10-09T06:47:42;22.27;;;6.10;;
64075;SDS011;50327;51.328;12.324;2023-10-09T06:50:11;16.50;;;5.80;;
64075;SDS011;50327;51.328;12.324;2023-10-09T06:52:45;19.58;;;5.32;;
64075;SDS011;50327;51.328;12.324;2023-10-09T06:55:22;15.38;;;6.10;;
64075;SDS011;50327;51.328;12.324;2023-10-09T06:57:59;13.38;;;6.22;;
64075;SDS011;50327;51.328;12.324;2023-10-09T07:00:27;15.68;;;7.30;;
64075;SDS011;50327;51.328;12.324;2023-10-09T07:03:10;17.85;;;6.20;;
64075;SDS011;50327;51.328;12.324;2023-10-09T07:05:39;11.48;;;6.07;;
64075;SDS011;50327;51.328;12.324;2023-10-09T07:08:30;19.27;;;6.97;;
64075;SDS011;50327;51.328;12.324;2023-10-09T07:11:03;17.15;;;7.75;;
64075;SDS011;50327;51.328;12.324;2023-10-09T07:14:07;18.35;;;7.28;;
64075;SDS011;50327;51.328;12.324;2023-10-09T07:16:33;16.13;;;6.60;;
64075;SDS011;50327;51.328;12.324;2023-10-09T07:19:11;15.18;;;7.00;;
64075;SDS011;50327;51.328;12.324;2023-10-09T07:21:55;19.98;;;7.30;;
64075;SDS011;50327;51.328;12.324;2023-10-09T07:24:20;23.55;;;7.78;;
64075;SDS011;50327;51.328;12.324;2023-10-09T07:27:02;24.63;;;6.97;;
64075;SDS011;50327;51.328;12.324;2023-10-09T07:29:33;22.13;;;7.32;;
64075;SDS011;50327;51.328;12.324;2023-10-09T07:32:12;22.27;;;7.60;;
64075;SDS011;50327;51.328;12.324;2023-10-09T07:34:37;20.67;;;7.63;;
64075;SDS011;50327;51.328;12.324;2023-10-09T07:37:21;15.02;;;7.05;;
64075;SDS011;50327;51.328;12.324;2023-10-09T07:39:50;20.45;;;7.65;;
64075;SDS011;50327;51.328;12.324;2023-10-09T07:42:22;27.95;;;8.40;;
64075;SDS011;50327;51.328;12.324;2023-10-09T07:45:03;17.05;;;7.55;;
64075;SDS011;50327;51.328;12.324;2023-10-09T07:47:57;16.42;;;7.47;;
64075;SDS011;50327;51.328;12.324;2023-10-09T07:50:34;22.75;;;7.78;;
64075;SDS011;50327;51.328;12.324;2023-10-09T07:53:09;18.98;;;8.57;;
64075;SDS011;50327;51.328;12.324;2023-10-09T07:55:42;20.40;;;7.57;;
64075;SDS011;50327;51.328;12.324;2023-10-09T07:58:19;18.83;;;8.30;;
64075;SDS011;50327;51.328;12.324;2023-10-09T08:00:50;21.20;;;8.88;;
64075;SDS011;50327;51.328;12.324;2023-10-09T08:03:41;21.00;;;8.45;;
64075;SDS011;50327;51.328;12.324;2023-10-09T08:06:10;25.73;;;9.13;;
64075;SDS011;50327;51.328;12.324;2023-10-09T08:08:54;26.25;;;7.95;;
64075;SDS011;50327;51.328;12.324;2023-10-09T08:11:37;21.10;;;8.27;;
64075;SDS011;50327;51.328;12.324;2023-10-09T08:14:25;24.40;;;9.48;;
64075;SDS011;50327;51.328;12.324;2023-10-09T08:16:59;19.40;;;8.52;;
64075;SDS011;50327;51.328;12.324;2023-10-09T08:19:46;25.38;;;8.50;;
64075;SDS011;50327;51.328;12.324;2023-10-09T08:22:36;23.40;;;8.55;;
64075;SDS011;50327;51.328;12.324;2023-10-09T08:25:08;22.05;;;9.20;;
64075;SDS011;50327;51.328;12.324;2023-10-09T08:27:41;25.48;;;9.82;;
64075;SDS011;50327;51.328;12.324;2023-10-09T08:30:19;30.73;;;9.90;;
64075;SDS011;50327;51.328;12.324;2023-10-09T08:32:48;26.80;;;9.60;;
64075;SDS011;50327;51.328;12.324;2023-10-09T08:35:36;23.05;;;9.27;;
64075;SDS011;50327;51.328;12.324;2023-10-09T08:38:14;21.20;;;9.43;;
64075;SDS011;50327;51.328;12.324;2023-10-09T08:40:40;20.10;;;9.88;;
64075;SDS011;50327;51.328;12.324;2023-10-09T08:43:15;19.75;;;9.10;;
64075;SDS011;50327;51.328;12.324;2023-10-09T08:45:54;21.70;;;8.85;;
64075;SDS011;50327;51.328;12.324;2023-10-09T08:48:26;18.80;;;7.90;;
64075;SDS011;50327;51.328;12.324;2023-10-09T08:50:52;26.35;;;9.80;;
64075;SDS011;50327;51.328;12.324;2023-10-09T08:53:21;29.98;;;8.40;;
64075;SDS011;50327;51.328;12.324;2023-10-09T08:55:46;19.92;;;8.32;;
64075;SDS011;50327;51.328;12.324;2023-10-09T08:58:12;24.23;;;9.45;;
64075;SDS011;50327;51.328;12.324;2023-10-09T09:00:59;19.48;;;8.13;;
64075;SDS011;50327;51.328;12.324;2023-10-09T09:03:26;24.10;;;9.88;;
64075;SDS011;50327;51.328;12.324;2023-10-09T09:05:59;20.70;;;8.57;;
64075;SDS011;50327;51.328;12.324;2023-10-09T09:08:26;19.42;;;8.80;;
64075;SDS011;50327;51.328;12.324;2023-10-09T09:13:37;24.65;;;8.85;;
64075;SDS011;50327;51.328;12.324;2023-10-09T09:16:02;21.75;;;8.85;;
64075;SDS011;50327;51.328;12.324;2023-10-09T09:18:27;24.88;;;9.10;;
64075;SDS011;50327;51.328;12.324;2023-10-09T09:20:57;19.02;;;8.70;;
64075;SDS011;50327;51.328;12.324;2023-10-09T09:23:22;20.98;;;8.57;;
64075;SDS011;50327;51.328;12.324;2023-10-09T09:25:49;27.80;;;9.02;;
64075;SDS011;50327;51.328;12.324;2023-10-09T09:28:23;18.75;;;8.45;;
64075;SDS011;50327;51.328;12.324;2023-10-09T09:30:51;21.27;;;7.70;;
64075;SDS011;50327;51.328;12.324;2023-10-09T09:33:20;17.77;;;8.45;;
64075;SDS011;50327;51.328;12.324;2023-10-09T09:35:58;16.38;;;7.70;;
64075;SDS011;50327;51.328;12.324;2023-10-09T09:38:25;22.48;;;8.02;;
64075;SDS011;50327;51.328;12.324;2023-10-09T09:40:51;24.30;;;8.23;;
64075;SDS011;50327;51.328;12.324;2023-10-09T09:43:19;17.50;;;9.18;;
64075;SDS011;50327;51.328;12.324;2023-10-09T09:45:48;18.73;;;8.20;;
64075;SDS011;50327;51.328;12.324;2023-10-09T09:48:15;21.45;;;8.88;;
64075;SDS011;50327;51.328;12.324;2023-10-09T09:50:41;20.63;;;8.52;;
64075;SDS011;50327;51.328;12.324;2023-10-09T09:53:10;21.95;;;8.60;;
64075;SDS011;50327;51.328;12.324;2023-10-09T09:55:37;22.17;;;8.52;;
64075;SDS011;50327;51.328;12.324;2023-10-09T09:58:07;26.02;;;8.65;;
64075;SDS011;50327;51.328;12.324;2023-10-09T10:00:43;21.80;;;8.75;;
64075;SDS011;50327;51.328;12.324;2023-10-09T10:03:14;17.15;;;7.95;;
64075;SDS011;50327;51.328;12.324;2023-10-09T10:05:42;18.42;;;8.70;;
64075;SDS011;50327;51.328;12.324;2023-10-09T10:08:08;19.85;;;9.35;;
64075;SDS011;50327;51.328;12.324;2023-10-09T10:10:39;17.10;;;8.60;;
64075;SDS011;50327;51.328;12.324;2023-10-09T10:16:10;17.70;;;7.95;;
64075;SDS011;50327;51.328;12.324;2023-10-09T10:18:57;16.00;;;6.95;;
64075;SDS011;50327;51.328;12.324;2023-10-09T10:21:32;16.80;;;7.45;;
64075;SDS011;50327;51.328;12.324;2023-10-09T10:23:58;21.27;;;7.30;;
64075;SDS011;50327;51.328;12.324;2023-10-09T10:26:35;16.08;;;7.28;;
64075;SDS011;50327;51.328;12.324;2023-10-09T10:34:51;18.33;;;7.22;;
64075;SDS011;50327;51.328;12.324;2023-10-09T10:40:03;16.27;;;7.35;;
64075;SDS011;50327;51.328;12.324;2023-10-09T10:42:47;18.30;;;8.00;;
64075;SDS011;50327;51.328;12.324;2023-10-09T10:45:32;22.55;;;7.63;;
64075;SDS011;50327;51.328;12.324;2023-10-09T10:48:02;16.42;;;7.05;;
64075;SDS011;50327;51.328;12.324;2023-10-09T10:50:34;22.08;;;7.50;;
64075;SDS011;50327;51.328;12.324;2023-10-09T10:53:07;22.00;;;8.15;;
64075;SDS011;50327;51.328;12.324;2023-10-09T10:55:58;18.70;;;7.50;;
64075;SDS011;50327;51.328;12.324;2023-10-09T10:58:43;21.05;;;7.38;;
64075;SDS011;50327;51.328;12.324;2023-10-09T11:01:20;15.83;;;8.27;;
64075;SDS011;50327;51.328;12.324;2023-10-09T11:03:49;18.40;;;8.65;;
64075;SDS011;50327;51.328;12.324;2023-10-09T11:06:30;26.90;;;9.15;;
64075;SDS011;50327;51.328;12.324;2023-10-09T11:09:02;18.40;;;8.30;;
64075;SDS011;50327;51.328;12.324;2023-10-09T11:11:34;17.02;;;7.28;;
64075;SDS011;50327;51.328;12.324;2023-10-09T11:14:09;19.00;;;7.90;;
64075;SDS011;50327;51.328;12.324;2023-10-09T11:16:39;17.77;;;7.20;;
64075;SDS011;50327;51.328;12.324;2023-10-09T11:19:13;16.47;;;8.53;;
64075;SDS011;50327;51.328;12.324;2023-10-09T11:21:51;18.20;;;8.45;;
64075;SDS011;50327;51.328;12.324;2023-10-09T11:24:24;14.68;;;7.70;;
64075;SDS011;50327;51.328;12.324;2023-10-09T11:26:50;18.45;;;7.40;;
64075;SDS011;50327;51.328;12.324;2023-10-09T11:29:22;19.25;;;7.32;;
64075;SDS011;50327;51.328;12.324;2023-10-09T11:32:06;17.67;;;8.55;;
64075;SDS011;50327;51.328;12.324;2023-10-09T11:34:34;17.45;;;8.38;;
64075;SDS011;50327;51.328;12.324;2023-10-09T11:37:22;20.55;;;8.02;;
64075;SDS011;50327;51.328;12.324;2023-10-09T11:39:58;23.65;;;8.77;;
64075;SDS011;50327;51.328;12.324;2023-10-09T11:42:24;20.10;;;7.57;;
64075;SDS011;50327;51.328;12.324;2023-10-09T11:45:19;22.40;;;7.70;;
64075;SDS011;50327;51.328;12.324;2023-10-09T11:47:45;15.63;;;8.30;;
64075;SDS011;50327;51.328;12.324;2023-10-09T11:50:37;20.48;;;8.63;;
64075;SDS011;50327;51.328;12.324;2023-10-09T11:53:07;26.17;;;8.50;;
64075;SDS011;50327;51.328;12.324;2023-10-09T11:55:48;17.98;;;8.48;;
64075;SDS011;50327;51.328;12.324;2023-10-09T11:58:14;22.73;;;8.98;;
64075;SDS011;50327;51.328;12.324;2023-10-09T12:00:39;21.67;;;8.73;;
64075;SDS011;50327;51.328;12.324;2023-10-09T12:03:10;19.25;;;9.63;;
64075;SDS011;50327;51.328;12.324;2023-10-09T12:05:36;25.08;;;10.10;;
64075;SDS011;50327;51.328;12.324;2023-10-09T12:08:02;22.48;;;9.38;;
64075;SDS011;50327;51.328;12.324;2023-10-09T12:10:33;20.55;;;9.93;;
64075;SDS011;50327;51.328;12.324;2023-10-09T12:12:59;21.67;;;9.80;;
64075;SDS011;50327;51.328;12.324;2023-10-09T12:15:24;23.63;;;9.90;;
64075;SDS011;50327;51.328;12.324;2023-10-09T12:17:49;21.05;;;8.82;;
64075;SDS011;50327;51.328;12.324;2023-10-09T12:20:18;27.70;;;9.90;;
64075;SDS011;50327;51.328;12.324;2023-10-09T12:22:58;24.42;;;9.38;;
64075;SDS011;50327;51.328;12.324;2023-10-09T12:27:49;19.67;;;9.23;;
64075;SDS011;50327;51.328;12.324;2023-10-09T12:30:14;26.48;;;9.95;;
64075;SDS011;50327;51.328;12.324;2023-10-09T12:32:39;25.73;;;10.27;;
64075;SDS011;50327;51.328;12.324;2023-10-09T12:35:05;20.27;;;9.48;;
64075;SDS011;50327;51.328;12.324;2023-10-09T12:37:42;20.25;;;9.45;;
64075;SDS011;50327;51.328;12.324;2023-10-09T12:40:08;26.17;;;10.13;;
64075;SDS011;50327;51.328;12.324;2023-10-09T12:42:35;17.67;;;8.52;;
64075;SDS011;50327;51.328;12.324;2023-10-09T12:45:01;18.90;;;9.75;;
64075;SDS011;50327;51.328;12.324;2023-10-09T12:47:33;17.30;;;8.38;;
64075;SDS011;50327;51.328;12.324;2023-10-09T12:49:58;18.55;;;8.45;;
64075;SDS011;50327;51.328;12.324;2023-10-09T12:52:23;16.10;;;8.15;;
64075;SDS011;50327;51.328;12.324;2023-10-09T12:54:54;17.52;;;8.52;;
64075;SDS011;50327;51.328;12.324;2023-10-09T12:57:19;23.63;;;9.25;;
64075;SDS011;50327;51.328;12.324;2023-10-09T12:59:45;19.67;;;8.75;;
64075;SDS011;50327;51.328;12.324;2023-10-09T13:02:13;20.25;;;8.98;;
64075;SDS011;50327;51.328;12.324;2023-10-09T13:04:53;18.02;;;8.65;;
64075;SDS011;50327;51.328;12.324;2023-10-09T13:07:18;18.75;;;9.75;;
64075;SDS011;50327;51.328;12.324;2023-10-09T13:09:47;19.38;;;9.52;;
64075;SDS011;50327;51.328;12.324;2023-10-09T13:12:32;19.38;;;10.05;;
64075;SDS011;50327;51.328;12.324;2023-10-09T13:14:57;21.08;;;8.77;;
64075;SDS011;50327;51.328;12.324;2023-10-09T13:17:22;18.77;;;9.13;;
64075;SDS011;50327;51.328;12.324;2023-10-09T13:19:51;24.02;;;8.98;;
64075;SDS011;50327;51.328;12.324;2023-10-09T13:22:17;19.52;;;8.52;;
64075;SDS011;50327;51.328;12.324;2023-10-09T13:24:42;18.67;;;9.02;;
64075;SDS011;50327;51.328;12.324;2023-10-09T13:27:08;19.10;;;8.35;;
64075;SDS011;50327;51.328;12.324;2023-10-09T13:29:37;20.73;;;8.82;;
64075;SDS011;50327;51.328;12.324;2023-10-09T13:32:06;24.08;;;9.38;;
64075;SDS011;50327;51.328;12.324;2023-10-09T13:34:38;20.58;;;9.40;;
64075;SDS011;50327;51.328;12.324;2023-10-09T13:37:09;18.65;;;8.55;;
64075;SDS011;50327;51.328;12.324;2023-10-09T13:39:38;25.63;;;9.77;;
64075;SDS011;50327;51.328;12.324;2023-10-09T13:42:05;22.42;;;8.90;;
64075;SDS011;50327;51.328;12.324;2023-10-09T13:44:32;24.35;;;12.73;;
64075;SDS011;50327;51.328;12.324;2023-10-09T13:46:59;26.90;;;9.48;;
64075;SDS011;50327;51.328;12.324;2023-10-09T13:49:26;21.40;;;9.63;;
64075;SDS011;50327;51.328;12.324;2023-10-09T13:51:55;23.55;;;9.95;;
64075;SDS011;50327;51.328;12.324;2023-10-09T13:54:21;22.02;;;10.48;;
64075;SDS011;50327;51.328;12.324;2023-10-09T13:56:53;22.23;;;10.02;;
64075;SDS011;50327;51.328;12.324;2023-10-09T13:59:22;23.88;;;10.05;;
64075;SDS011;50327;51.328;12.324;2023-10-09T14:01:50;20.80;;;10.25;;
64075;SDS011;50327;51.328;12.324;2023-10-09T14:04:16;31.17;;;10.85;;
64075;SDS011;50327;51.328;12.324;2023-10-09T14:06:45;21.05;;;10.32;;
64075;SDS011;50327;51.328;12.324;2023-10-09T14:09:11;27.45;;;11.60;;
64075;SDS011;50327;51.328;12.324;2023-10-09T14:11:36;28.00;;;11.70;;
64075;SDS011;50327;51.328;12.324;2023-10-09T14:14:05;24.73;;;11.43;;
64075;SDS011;50327;51.328;12.324;2023-10-09T14:16:35;29.08;;;11.18;;
64075;SDS011;50327;51.328;12.324;2023-10-09T14:19:00;23.60;;;10.65;;
64075;SDS011;50327;51.328;12.324;2023-10-09T14:21:26;21.48;;;9.70;;
64075;SDS011;50327;51.328;12.324;2023-10-09T14:23:55;24.80;;;10.48;;
64075;SDS011;50327;51.328;12.324;2023-10-09T14:26:25;21.52;;;10.60;;
64075;SDS011;50327;51.328;12.324;2023-10-09T14:28:51;21.83;;;10.60;;
64075;SDS011;50327;51.328;12.324;2023-10-09T14:31:17;27.13;;;11.25;;
64075;SDS011;50327;51.328;12.324;2023-10-09T14:33:47;22.97;;;10.60;;
64075;SDS011;50327;51.328;12.324;2023-10-09T14:36:16;24.95;;;11.10;;
64075;SDS011;50327;51.328;12.324;2023-10-09T14:38:41;25.90;;;10.68;;
64075;SDS011;50327;51.328;12.324;2023-10-09T14:41:07;20.45;;;10.13;;
64075;SDS011;50327;51.328;12.324;2023-10-09T14:43:36;27.90;;;10.68;;
64075;SDS011;50327;51.328;12.324;2023-10-09T14:46:01;24.88;;;11.35;;
64075;SDS011;50327;51.328;12.324;2023-10-09T14:48:29;20.50;;;10.82;;
64075;SDS011;50327;51.328;12.324;2023-10-09T14:51:02;22.13;;;10.75;;
64075;SDS011;50327;51.328;12.324;2023-10-09T14:53:30;26.30;;;10.98;;
64075;SDS011;50327;51.328;12.324;2023-10-09T14:55:58;24.15;;;10.95;;
64075;SDS011;50327;51.328;12.324;2023-10-09T14:58:26;31.73;;;11.63;;
64075;SDS011;50327;51.328;12.324;2023-10-09T15:00:54;29.67;;;13.80;;
64075;SDS011;50327;51.328;12.324;2023-10-09T15:03:19;30.08;;;11.90;;
64075;SDS011;50327;51.328;12.324;2023-10-09T15:05:45;25.77;;;11.30;;
64075;SDS011;50327;51.328;12.324;2023-10-09T15:08:10;24.38;;;11.93;;
64075;SDS011;50327;51.328;12.324;2023-10-09T15:10:36;26.20;;;11.63;;
64075;SDS011;50327;51.328;12.324;2023-10-09T15:13:03;24.63;;;10.75;;
64075;SDS011;50327;51.328;12.324;2023-10-09T15:15:29;28.55;;;10.77;;